Huron, Tennessee
Current Conditions -  °F | °C
As of 12:35 PM on Saturday 25 Oct 2014 (Local Time) from KPVE Reporting Station
Clear Clear  
Wind Chill: 75°   Ceiling: Unl
Heat Index: 75°   Visibility: 10mi
Dew Point: 61°   Wind: 5mph
Humidity: 61%   Direction: 260°W
Pressure: 30.05"   Gusts: NA
Location:  35.59°N, 88.53°W
Report Text: KPVE 251735Z AUTO 26004KT 10SM CLR 24/16 A3005 RMK
Loading
Personal Weather Stations






























Interactive Weather Map New forecast layout! Learn more

10-Day Weather Forecast

Advertisements
Track Severe Weather on mobile